sensor_id;sensor_type;location;lat;lon;timestamp;pressure;altitude;pressure_sealevel;temperature;humidity
72110;BME280;59983;52.010;5.420;2022-12-18T00:02:12;102900.81;;;-1.39;83.30
72110;BME280;59983;52.010;5.420;2022-12-18T00:04:39;102906.13;;;-1.39;83.50
72110;BME280;59983;52.010;5.420;2022-12-18T00:07:05;102902.69;;;-1.46;83.11
72110;BME280;59983;52.010;5.420;2022-12-18T00:09:32;102895.97;;;-1.49;83.77
72110;BME280;59983;52.010;5.420;2022-12-18T00:12:06;102882.88;;;-1.50;83.87
72110;BME280;59983;52.010;5.420;2022-12-18T00:14:41;102878.97;;;-1.48;83.42
72110;BME280;59983;52.010;5.420;2022-12-18T00:17:08;102872.97;;;-1.43;83.74
72110;BME280;59983;52.010;5.420;2022-12-18T00:19:34;102868.06;;;-1.39;83.66
72110;BME280;59983;52.010;5.420;2022-12-18T00:22:01;102870.06;;;-1.35;83.19
72110;BME280;59983;52.010;5.420;2022-12-18T00:24:27;102876.03;;;-1.39;82.76
72110;BME280;59983;52.010;5.420;2022-12-18T00:26:54;102869.28;;;-1.42;83.05
72110;BME280;59983;52.010;5.420;2022-12-18T00:29:20;102869.50;;;-1.44;83.45
72110;BME280;59983;52.010;5.420;2022-12-18T00:31:46;102870.38;;;-1.50;83.08
72110;BME280;59983;52.010;5.420;2022-12-18T00:34:13;102883.31;;;-1.60;82.96
72110;BME280;59983;52.010;5.420;2022-12-18T00:36:41;102890.66;;;-1.55;83.35
72110;BME280;59983;52.010;5.420;2022-12-18T00:39:09;102885.56;;;-1.57;83.48
72110;BME280;59983;52.010;5.420;2022-12-18T00:41:36;102869.59;;;-1.57;83.34
72110;BME280;59983;52.010;5.420;2022-12-18T00:44:21;102878.03;;;-1.66;82.92
72110;BME280;59983;52.010;5.420;2022-12-18T00:46:48;102875.97;;;-1.64;83.07
72110;BME280;59983;52.010;5.420;2022-12-18T00:49:16;102871.03;;;-1.61;82.87
72110;BME280;59983;52.010;5.420;2022-12-18T00:51:44;102870.22;;;-1.61;82.67
72110;BME280;59983;52.010;5.420;2022-12-18T00:54:11;102871.94;;;-1.74;82.35
72110;BME280;59983;52.010;5.420;2022-12-18T00:56:38;102864.34;;;-1.70;83.14
72110;BME280;59983;52.010;5.420;2022-12-18T00:59:14;102878.50;;;-1.76;82.54
72110;BME280;59983;52.010;5.420;2022-12-18T01:01:41;102874.59;;;-1.74;82.87
72110;BME280;59983;52.010;5.420;2022-12-18T01:04:08;102880.88;;;-1.68;83.04
72110;BME280;59983;52.010;5.420;2022-12-18T01:06:34;102863.53;;;-1.77;82.86
72110;BME280;59983;52.010;5.420;2022-12-18T01:09:01;102859.72;;;-1.88;82.52
72110;BME280;59983;52.010;5.420;2022-12-18T01:11:28;102858.91;;;-1.95;82.83
72110;BME280;59983;52.010;5.420;2022-12-18T01:13:55;102865.69;;;-1.99;82.75
72110;BME280;59983;52.010;5.420;2022-12-18T01:16:22;102860.81;;;-2.09;82.64
72110;BME280;59983;52.010;5.420;2022-12-18T01:18:51;102877.78;;;-2.03;82.97
72110;BME280;59983;52.010;5.420;2022-12-18T01:21:19;102873.88;;;-2.01;82.67
72110;BME280;59983;52.010;5.420;2022-12-18T01:23:46;102869.84;;;-2.10;82.12
72110;BME280;59983;52.010;5.420;2022-12-18T01:26:15;102887.44;;;-2.15;82.33
72110;BME280;59983;52.010;5.420;2022-12-18T01:28:42;102878.03;;;-2.24;82.33
72110;BME280;59983;52.010;5.420;2022-12-18T01:33:41;102886.69;;;-2.42;82.64
72110;BME280;59983;52.010;5.420;2022-12-18T01:36:08;102879.94;;;-2.45;82.64
72110;BME280;59983;52.010;5.420;2022-12-18T01:38:35;102876.69;;;-2.53;82.77
72110;BME280;59983;52.010;5.420;2022-12-18T01:41:01;102871.75;;;-2.50;82.57
72110;BME280;59983;52.010;5.420;2022-12-18T01:44:00;102878.09;;;-2.58;82.61
72110;BME280;59983;52.010;5.420;2022-12-18T01:46:27;102879.94;;;-2.58;82.50
72110;BME280;59983;52.010;5.420;2022-12-18T01:48:57;102882.00;;;-2.60;82.45
72110;BME280;59983;52.010;5.420;2022-12-18T01:51:24;102879.56;;;-2.62;82.84
72110;BME280;59983;52.010;5.420;2022-12-18T01:53:52;102883.03;;;-2.61;82.91
72110;BME280;59983;52.010;5.420;2022-12-18T01:56:20;102887.53;;;-2.62;82.52
72110;BME280;59983;52.010;5.420;2022-12-18T02:01:22;102894.69;;;-2.62;82.46
72110;BME280;59983;52.010;5.420;2022-12-18T02:03:50;102887.53;;;-2.68;82.65
72110;BME280;59983;52.010;5.420;2022-12-18T02:06:27;102889.38;;;-2.69;82.67
72110;BME280;59983;52.010;5.420;2022-12-18T02:09:07;102890.78;;;-2.66;82.32
72110;BME280;59983;52.010;5.420;2022-12-18T02:12:07;102885.69;;;-2.74;82.47
72110;BME280;59983;52.010;5.420;2022-12-18T02:14:55;102894.28;;;-2.79;82.51
72110;BME280;59983;52.010;5.420;2022-12-18T02:17:37;102888.75;;;-2.84;82.53
72110;BME280;59983;52.010;5.420;2022-12-18T02:20:28;102890.00;;;-2.73;82.40
72110;BME280;59983;52.010;5.420;2022-12-18T02:23:15;102877.53;;;-2.79;82.28
72110;BME280;59983;52.010;5.420;2022-12-18T02:28:51;102896.31;;;-2.94;82.44
72110;BME280;59983;52.010;5.420;2022-12-18T02:31:25;102888.75;;;-2.97;82.55
72110;BME280;59983;52.010;5.420;2022-12-18T02:33:55;102888.75;;;-2.97;82.07
72110;BME280;59983;52.010;5.420;2022-12-18T02:36:23;102891.22;;;-2.96;82.36
72110;BME280;59983;52.010;5.420;2022-12-18T02:38:52;102883.44;;;-2.97;82.06
72110;BME280;59983;52.010;5.420;2022-12-18T02:41:20;102883.22;;;-3.02;81.78
72110;BME280;59983;52.010;5.420;2022-12-18T02:43:49;102875.28;;;-2.96;82.25
72110;BME280;59983;52.010;5.420;2022-12-18T02:46:35;102876.28;;;-2.83;81.88
72110;BME280;59983;52.010;5.420;2022-12-18T02:51:55;102875.91;;;-2.80;81.96
72110;BME280;59983;52.010;5.420;2022-12-18T03:00:08;102875.25;;;-3.02;81.54
72110;BME280;59983;52.010;5.420;2022-12-18T03:03:05;102868.31;;;-3.03;81.87
72110;BME280;59983;52.010;5.420;2022-12-18T03:05:38;102863.63;;;-3.01;81.94
72110;BME280;59983;52.010;5.420;2022-12-18T03:08:10;102862.22;;;-2.97;81.68
72110;BME280;59983;52.010;5.420;2022-12-18T03:10:44;102858.53;;;-2.96;81.46
72110;BME280;59983;52.010;5.420;2022-12-18T03:13:15;102849.13;;;-3.05;81.32
72110;BME280;59983;52.010;5.420;2022-12-18T03:15:50;102847.72;;;-3.15;81.51
72110;BME280;59983;52.010;5.420;2022-12-18T03:18:43;102836.88;;;-3.20;81.31
72110;BME280;59983;52.010;5.420;2022-12-18T03:21:14;102837.50;;;-3.24;81.72
72110;BME280;59983;52.010;5.420;2022-12-18T03:23:48;102850.16;;;-3.06;81.62
72110;BME280;59983;52.010;5.420;2022-12-18T03:26:22;102833.00;;;-3.04;81.43
72110;BME280;59983;52.010;5.420;2022-12-18T03:28:57;102825.84;;;-3.03;81.66
72110;BME280;59983;52.010;5.420;2022-12-18T03:31:28;102828.09;;;-2.94;81.45
72110;BME280;59983;52.010;5.420;2022-12-18T03:34:03;102824.84;;;-2.96;81.33
72110;BME280;59983;52.010;5.420;2022-12-18T03:36:31;102829.13;;;-2.95;81.41
72110;BME280;59983;52.010;5.420;2022-12-18T03:38:58;102837.09;;;-2.95;81.46
72110;BME280;59983;52.010;5.420;2022-12-18T03:41:51;102831.19;;;-2.97;80.98
72110;BME280;59983;52.010;5.420;2022-12-18T03:44:33;102827.09;;;-3.06;81.13
72110;BME280;59983;52.010;5.420;2022-12-18T03:47:16;102824.44;;;-3.13;81.31
72110;BME280;59983;52.010;5.420;2022-12-18T03:50:01;102820.16;;;-3.07;81.54
72110;BME280;59983;52.010;5.420;2022-12-18T03:52:38;102816.47;;;-3.06;81.48
72110;BME280;59983;52.010;5.420;2022-12-18T03:55:07;102815.84;;;-3.01;81.64
72110;BME280;59983;52.010;5.420;2022-12-18T03:57:35;102820.56;;;-2.90;81.38
72110;BME280;59983;52.010;5.420;2022-12-18T04:00:14;102821.38;;;-2.96;81.32
72110;BME280;59983;52.010;5.420;2022-12-18T04:02:46;102821.97;;;-3.01;81.37
72110;BME280;59983;52.010;5.420;2022-12-18T04:05:14;102808.31;;;-3.04;81.01
72110;BME280;59983;52.010;5.420;2022-12-18T04:07:42;102811.34;;;-3.01;81.53
72110;BME280;59983;52.010;5.420;2022-12-18T04:10:11;102799.09;;;-3.02;81.22
72110;BME280;59983;52.010;5.420;2022-12-18T04:12:38;102791.78;;;-3.06;81.62
72110;BME280;59983;52.010;5.420;2022-12-18T04:15:06;102803.22;;;-2.99;81.17
72110;BME280;59983;52.010;5.420;2022-12-18T04:17:32;102798.50;;;-3.04;81.40
72110;BME280;59983;52.010;5.420;2022-12-18T04:19:59;102797.09;;;-3.00;81.40
72110;BME280;59983;52.010;5.420;2022-12-18T04:22:25;102801.75;;;-2.95;81.25
72110;BME280;59983;52.010;5.420;2022-12-18T04:24:51;102801.34;;;-2.92;81.29
72110;BME280;59983;52.010;5.420;2022-12-18T04:27:18;102799.50;;;-2.92;81.20
72110;BME280;59983;52.010;5.420;2022-12-18T04:29:44;102797.66;;;-2.85;81.04
72110;BME280;59983;52.010;5.420;2022-12-18T04:32:11;102800.53;;;-2.86;80.93
72110;BME280;59983;52.010;5.420;2022-12-18T04:34:37;102795.22;;;-2.79;81.29
72110;BME280;59983;52.010;5.420;2022-12-18T04:37:04;102797.22;;;-2.75;80.72
72110;BME280;59983;52.010;5.420;2022-12-18T04:39:30;102793.56;;;-2.74;80.69
72110;BME280;59983;52.010;5.420;2022-12-18T04:41:57;102805.63;;;-2.71;80.65
72110;BME280;59983;52.010;5.420;2022-12-18T04:44:23;102805.63;;;-2.85;80.57
72110;BME280;59983;52.010;5.420;2022-12-18T04:46:50;102817.28;;;-2.92;80.49
72110;BME280;59983;52.010;5.420;2022-12-18T04:49:16;102812.38;;;-2.89;80.12
72110;BME280;59983;52.010;5.420;2022-12-18T04:51:43;102824.84;;;-2.96;80.50
72110;BME280;59983;52.010;5.420;2022-12-18T04:54:09;102828.69;;;-2.92;80.47
72110;BME280;59983;52.010;5.420;2022-12-18T04:56:36;102822.78;;;-2.87;80.38
72110;BME280;59983;52.010;5.420;2022-12-18T04:59:02;102820.16;;;-3.00;79.93
72110;BME280;59983;52.010;5.420;2022-12-18T05:01:28;102824.63;;;-3.01;80.47
72110;BME280;59983;52.010;5.420;2022-12-18T05:04:01;102825.22;;;-2.92;80.65
72110;BME280;59983;52.010;5.420;2022-12-18T05:06:27;102828.94;;;-3.00;80.06
72110;BME280;59983;52.010;5.420;2022-12-18T05:08:54;102836.47;;;-3.03;80.22
72110;BME280;59983;52.010;5.420;2022-12-18T05:11:21;102835.25;;;-2.94;80.21
72110;BME280;59983;52.010;5.420;2022-12-18T05:13:47;102835.25;;;-3.01;80.15
72110;BME280;59983;52.010;5.420;2022-12-18T05:16:14;102842.59;;;-2.96;80.07
72110;BME280;59983;52.010;5.420;2022-12-18T05:18:41;102832.00;;;-2.96;79.98
72110;BME280;59983;52.010;5.420;2022-12-18T05:21:08;102841.19;;;-3.05;80.04
72110;BME280;59983;52.010;5.420;2022-12-18T05:23:35;102848.53;;;-3.07;80.17
72110;BME280;59983;52.010;5.420;2022-12-18T05:26:04;102847.50;;;-3.13;79.85
72110;BME280;59983;52.010;5.420;2022-12-18T05:28:33;102852.59;;;-3.18;79.85
72110;BME280;59983;52.010;5.420;2022-12-18T05:31:01;102852.59;;;-3.18;80.08
72110;BME280;59983;52.010;5.420;2022-12-18T05:33:31;102853.63;;;-3.13;79.99
72110;BME280;59983;52.010;5.420;2022-12-18T05:36:02;102849.34;;;-3.00;80.29
72110;BME280;59983;52.010;5.420;2022-12-18T05:38:30;102848.94;;;-2.97;80.14
72110;BME280;59983;52.010;5.420;2022-12-18T05:40:57;102843.63;;;-3.04;79.98
72110;BME280;59983;52.010;5.420;2022-12-18T05:43:25;102846.06;;;-2.96;79.85
72110;BME280;59983;52.010;5.420;2022-12-18T05:45:53;102840.16;;;-2.91;80.25
72110;BME280;59983;52.010;5.420;2022-12-18T05:48:21;102825.44;;;-2.94;79.72
72110;BME280;59983;52.010;5.420;2022-12-18T05:50:49;102833.41;;;-2.94;79.96
72110;BME280;59983;52.010;5.420;2022-12-18T05:53:17;102818.72;;;-2.90;79.70
72110;BME280;59983;52.010;5.420;2022-12-18T05:55:44;102813.78;;;-2.86;79.85
72110;BME280;59983;52.010;5.420;2022-12-18T05:58:12;102805.84;;;-2.86;79.60
72110;BME280;59983;52.010;5.420;2022-12-18T06:00:44;102823.19;;;-2.83;79.85
72110;BME280;59983;52.010;5.420;2022-12-18T06:03:11;102817.47;;;-2.87;79.88
72110;BME280;59983;52.010;5.420;2022-12-18T06:05:41;102819.72;;;-2.77;79.79
72110;BME280;59983;52.010;5.420;2022-12-18T06:08:08;102812.16;;;-2.80;79.34
72110;BME280;59983;52.010;5.420;2022-12-18T06:10:35;102802.97;;;-2.85;79.61
72110;BME280;59983;52.010;5.420;2022-12-18T06:13:01;102792.75;;;-2.81;79.78
72110;BME280;59983;52.010;5.420;2022-12-18T06:15:28;102794.78;;;-2.83;79.60
72110;BME280;59983;52.010;5.420;2022-12-18T06:17:54;102801.34;;;-2.86;79.25
72110;BME280;59983;52.010;5.420;2022-12-18T06:20:21;102795.63;;;-2.89;79.51
72110;BME280;59983;52.010;5.420;2022-12-18T06:22:47;102794.19;;;-2.85;79.64
72110;BME280;59983;52.010;5.420;2022-12-18T06:25:15;102790.13;;;-2.81;79.82
72110;BME280;59983;52.010;5.420;2022-12-18T06:27:41;102786.44;;;-2.87;79.31
72110;BME280;59983;52.010;5.420;2022-12-18T06:30:09;102796.84;;;-2.85;79.63
72110;BME280;59983;52.010;5.420;2022-12-18T06:32:36;102791.94;;;-2.81;79.55
72110;BME280;59983;52.010;5.420;2022-12-18T06:35:02;102791.75;;;-2.73;79.50
72110;BME280;59983;52.010;5.420;2022-12-18T06:37:30;102791.31;;;-2.70;79.15
72110;BME280;59983;52.010;5.420;2022-12-18T06:39:57;102785.63;;;-2.80;78.87
72110;BME280;59983;52.010;5.420;2022-12-18T06:42:24;102777.66;;;-2.74;78.82
72110;BME280;59983;52.010;5.420;2022-12-18T06:44:51;102779.66;;;-2.76;78.76
72110;BME280;59983;52.010;5.420;2022-12-18T06:47:18;102767.84;;;-2.73;79.19
72110;BME280;59983;52.010;5.420;2022-12-18T06:49:44;102767.63;;;-2.72;78.59
72110;BME280;59983;52.010;5.420;2022-12-18T06:52:11;102769.69;;;-2.74;78.84
72110;BME280;59983;52.010;5.420;2022-12-18T06:54:37;102761.72;;;-2.80;78.60
72110;BME280;59983;52.010;5.420;2022-12-18T06:57:04;102753.53;;;-2.86;78.86
72110;BME280;59983;52.010;5.420;2022-12-18T06:59:30;102739.47;;;-2.93;78.80
72110;BME280;59983;52.010;5.420;2022-12-18T07:01:56;102744.78;;;-2.93;78.95
72110;BME280;59983;52.010;5.420;2022-12-18T07:04:31;102742.31;;;-2.88;79.34
72110;BME280;59983;52.010;5.420;2022-12-18T07:06:57;102743.56;;;-2.90;79.18
72110;BME280;59983;52.010;5.420;2022-12-18T07:09:24;102749.47;;;-2.81;79.24
72110;BME280;59983;52.010;5.420;2022-12-18T07:11:51;102741.91;;;-2.85;78.87
72110;BME280;59983;52.010;5.420;2022-12-18T07:14:18;102741.72;;;-2.90;79.02
72110;BME280;59983;52.010;5.420;2022-12-18T07:16:45;102737.22;;;-2.82;79.29
72110;BME280;59983;52.010;5.420;2022-12-18T07:19:11;102728.00;;;-2.80;78.96
72110;BME280;59983;52.010;5.420;2022-12-18T07:21:38;102734.53;;;-2.76;79.45
72110;BME280;59983;52.010;5.420;2022-12-18T07:24:05;102727.19;;;-2.74;79.26
72110;BME280;59983;52.010;5.420;2022-12-18T07:26:31;102725.31;;;-2.67;78.95
72110;BME280;59983;52.010;5.420;2022-12-18T07:28:58;102726.53;;;-2.63;78.95
72110;BME280;59983;52.010;5.420;2022-12-18T07:31:25;102722.03;;;-2.62;79.32
72110;BME280;59983;52.010;5.420;2022-12-18T07:33:53;102722.00;;;-2.55;78.83
72110;BME280;59983;52.010;5.420;2022-12-18T07:36:22;102719.09;;;-2.47;78.97
72110;BME280;59983;52.010;5.420;2022-12-18T07:38:49;102721.56;;;-2.46;78.73
72110;BME280;59983;52.010;5.420;2022-12-18T07:41:16;102708.06;;;-2.44;79.11
72110;BME280;59983;52.010;5.420;2022-12-18T07:43:43;102701.91;;;-2.38;79.29
72110;BME280;59983;52.010;5.420;2022-12-18T07:46:11;102709.47;;;-2.42;79.27
72110;BME280;59983;52.010;5.420;2022-12-18T07:48:41;102697.56;;;-2.33;78.82
72110;BME280;59983;52.010;5.420;2022-12-18T07:51:09;102695.91;;;-2.27;78.76
72110;BME280;59983;52.010;5.420;2022-12-18T07:53:36;102684.84;;;-2.24;78.81
72110;BME280;59983;52.010;5.420;2022-12-18T07:56:05;102684.00;;;-2.18;79.03
72110;BME280;59983;52.010;5.420;2022-12-18T07:58:52;102687.06;;;-2.21;78.97
72110;BME280;59983;52.010;5.420;2022-12-18T08:01:19;102677.22;;;-2.14;78.46
72110;BME280;59983;52.010;5.420;2022-12-18T08:03:46;102678.25;;;-2.15;78.38
72110;BME280;59983;52.010;5.420;2022-12-18T08:06:13;102681.31;;;-2.11;78.33
72110;BME280;59983;52.010;5.420;2022-12-18T08:08:40;102678.91;;;-2.19;78.90
72110;BME280;59983;52.010;5.420;2022-12-18T08:11:08;102678.66;;;-2.11;79.04
72110;BME280;59983;52.010;5.420;2022-12-18T08:13:35;102674.53;;;-2.07;78.56
72110;BME280;59983;52.010;5.420;2022-12-18T08:16:05;102665.69;;;-2.01;78.57
72110;BME280;59983;52.010;5.420;2022-12-18T08:18:33;102656.66;;;-1.93;78.97
72110;BME280;59983;52.010;5.420;2022-12-18T08:21:15;102661.53;;;-1.90;78.54
72110;BME280;59983;52.010;5.420;2022-12-18T08:23:42;102665.59;;;-1.88;78.70
72110;BME280;59983;52.010;5.420;2022-12-18T08:26:10;102670.03;;;-1.82;78.92
72110;BME280;59983;52.010;5.420;2022-12-18T08:28:38;102690.88;;;-1.79;78.62
72110;BME280;59983;52.010;5.420;2022-12-18T08:31:05;102703.16;;;-1.78;78.14
72110;BME280;59983;52.010;5.420;2022-12-18T08:33:32;102699.25;;;-1.75;78.32
72110;BME280;59983;52.010;5.420;2022-12-18T08:36:00;102691.66;;;-1.72;78.84
72110;BME280;59983;52.010;5.420;2022-12-18T08:38:26;102686.31;;;-1.72;78.56
72110;BME280;59983;52.010;5.420;2022-12-18T08:41:01;102688.41;;;-1.74;78.46
72110;BME280;59983;52.010;5.420;2022-12-18T08:43:28;102699.03;;;-1.74;78.26
72110;BME280;59983;52.010;5.420;2022-12-18T08:46:13;102690.84;;;-1.72;78.21
72110;BME280;59983;52.010;5.420;2022-12-18T08:48:39;102684.53;;;-1.78;78.63
72110;BME280;59983;52.010;5.420;2022-12-18T08:51:06;102681.22;;;-1.73;78.25
72110;BME280;59983;52.010;5.420;2022-12-18T08:53:32;102677.91;;;-1.68;78.10
72110;BME280;59983;52.010;5.420;2022-12-18T08:56:01;102684.03;;;-1.68;78.10
72110;BME280;59983;52.010;5.420;2022-12-18T08:58:28;102687.31;;;-1.66;77.84
72110;BME280;59983;52.010;5.420;2022-12-18T09:00:59;102684.47;;;-1.71;77.72
72110;BME280;59983;52.010;5.420;2022-12-18T09:03:26;102681.31;;;-1.61;78.06
72110;BME280;59983;52.010;5.420;2022-12-18T09:05:52;102677.84;;;-1.62;78.34
72110;BME280;59983;52.010;5.420;2022-12-18T09:08:19;102676.59;;;-1.59;78.04
72110;BME280;59983;52.010;5.420;2022-12-18T09:10:48;102689.00;;;-1.47;78.71
72110;BME280;59983;52.010;5.420;2022-12-18T09:13:15;102689.56;;;-1.45;78.26
72110;BME280;59983;52.010;5.420;2022-12-18T09:15:43;102689.75;;;-1.39;78.10
72110;BME280;59983;52.010;5.420;2022-12-18T09:18:12;102683.53;;;-1.33;77.87
72110;BME280;59983;52.010;5.420;2022-12-18T09:20:39;102697.75;;;-1.21;78.27
72110;BME280;59983;52.010;5.420;2022-12-18T09:23:06;102690.31;;;-1.12;78.23
72110;BME280;59983;52.010;5.420;2022-12-18T09:25:33;102679.19;;;-1.09;77.95
72110;BME280;59983;52.010;5.420;2022-12-18T09:28:04;102690.25;;;-1.06;77.56
72110;BME280;59983;52.010;5.420;2022-12-18T09:30:30;102683.94;;;-1.11;77.11
72110;BME280;59983;52.010;5.420;2022-12-18T09:33:00;102686.31;;;-1.03;77.85
72110;BME280;59983;52.010;5.420;2022-12-18T09:35:27;102684.81;;;-0.99;77.53
72110;BME280;59983;52.010;5.420;2022-12-18T09:37:54;102663.69;;;-0.94;77.87
72110;BME280;59983;52.010;5.420;2022-12-18T09:40:23;102659.91;;;-0.87;77.80
72110;BME280;59983;52.010;5.420;2022-12-18T09:42:59;102661.53;;;-0.86;77.71
72110;BME280;59983;52.010;5.420;2022-12-18T09:45:27;102657.66;;;-0.71;76.96
72110;BME280;59983;52.010;5.420;2022-12-18T09:47:57;102653.75;;;-0.69;77.23
72110;BME280;59983;52.010;5.420;2022-12-18T09:50:31;102638.09;;;-0.65;76.99
72110;BME280;59983;52.010;5.420;2022-12-18T09:53:03;102638.91;;;-0.65;77.35
72110;BME280;59983;52.010;5.420;2022-12-18T09:55:38;102642.31;;;-0.58;77.31
72110;BME280;59983;52.010;5.420;2022-12-18T09:58:13;102632.50;;;-0.45;76.77
72110;BME280;59983;52.010;5.420;2022-12-18T10:00:42;102633.91;;;-0.43;76.41
72110;BME280;59983;52.010;5.420;2022-12-18T10:03:13;102637.03;;;-0.46;76.78
72110;BME280;59983;52.010;5.420;2022-12-18T10:14:26;102639.91;;;-0.17;76.66
72110;BME280;59983;52.010;5.420;2022-12-18T10:17:13;102624.25;;;-0.14;75.74
72110;BME280;59983;52.010;5.420;2022-12-18T10:19:48;102619.16;;;-0.04;75.89
72110;BME280;59983;52.010;5.420;2022-12-18T10:25:06;102634.94;;;-0.02;75.64
72110;BME280;59983;52.010;5.420;2022-12-18T10:27:40;102637.84;;;0.08;75.60
72110;BME280;59983;52.010;5.420;2022-12-18T10:30:20;102635.06;;;0.15;76.25
72110;BME280;59983;52.010;5.420;2022-12-18T10:32:47;102626.06;;;0.39;77.68
72110;BME280;59983;52.010;5.420;2022-12-18T10:35:20;102613.75;;;0.50;77.94
72110;BME280;59983;52.010;5.420;2022-12-18T10:40:25;102600.16;;;0.40;76.40
72110;BME280;59983;52.010;5.420;2022-12-18T10:43:13;102604.47;;;0.41;75.76
72110;BME280;59983;52.010;5.420;2022-12-18T10:45:41;102591.69;;;0.43;75.56
72110;BME280;59983;52.010;5.420;2022-12-18T10:48:19;102591.91;;;0.41;75.62
72110;BME280;59983;52.010;5.420;2022-12-18T10:50:48;102594.03;;;0.39;75.70
72110;BME280;59983;52.010;5.420;2022-12-18T10:53:36;102592.84;;;0.47;75.43
72110;BME280;59983;52.010;5.420;2022-12-18T10:56:04;102585.41;;;0.61;75.82
72110;BME280;59983;52.010;5.420;2022-12-18T10:58:34;102583.31;;;0.63;75.28
72110;BME280;59983;52.010;5.420;2022-12-18T11:01:06;102582.63;;;0.55;74.88
72110;BME280;59983;52.010;5.420;2022-12-18T11:06:19;102570.53;;;0.65;75.11
72110;BME280;59983;52.010;5.420;2022-12-18T11:09:19;102573.19;;;0.76;74.68
72110;BME280;59983;52.010;5.420;2022-12-18T11:11:51;102569.47;;;0.77;74.75
72110;BME280;59983;52.010;5.420;2022-12-18T11:14:31;102564.03;;;0.72;74.16
72110;BME280;59983;52.010;5.420;2022-12-18T11:17:00;102550.06;;;0.82;74.44
72110;BME280;59983;52.010;5.420;2022-12-18T11:19:53;102551.94;;;0.81;74.12
72110;BME280;59983;52.010;5.420;2022-12-18T11:22:31;102550.41;;;0.85;74.10
72110;BME280;59983;52.010;5.420;2022-12-18T11:24:59;102542.25;;;0.92;73.99
72110;BME280;59983;52.010;5.420;2022-12-18T11:27:48;102535.53;;;0.90;74.06
72110;BME280;59983;52.010;5.420;2022-12-18T11:32:48;102546.28;;;1.06;73.64
72110;BME280;59983;52.010;5.420;2022-12-18T11:35:20;102542.88;;;1.11;73.91
72110;BME280;59983;52.010;5.420;2022-12-18T11:37:56;102541.69;;;1.19;72.89
72110;BME280;59983;52.010;5.420;2022-12-18T11:40:34;102539.25;;;1.17;73.18
72110;BME280;59983;52.010;5.420;2022-12-18T11:43:34;102532.28;;;1.16;72.84
72110;BME280;59983;52.010;5.420;2022-12-18T11:46:08;102532.75;;;1.13;72.59
72110;BME280;59983;52.010;5.420;2022-12-18T11:49:32;102544.59;;;1.17;72.97
72110;BME280;59983;52.010;5.420;2022-12-18T11:54:20;102528.63;;;1.22;72.76
72110;BME280;59983;52.010;5.420;2022-12-18T12:00:15;102509.28;;;1.32;72.55
72110;BME280;59983;52.010;5.420;2022-12-18T12:02:56;102499.66;;;1.31;72.57
72110;BME280;59983;52.010;5.420;2022-12-18T12:08:22;102499.81;;;1.41;72.71
72110;BME280;59983;52.010;5.420;2022-12-18T12:11:06;102487.84;;;1.44;72.64
72110;BME280;59983;52.010;5.420;2022-12-18T12:22:11;102477.72;;;1.46;72.21
72110;BME280;59983;52.010;5.420;2022-12-18T12:30:22;102461.56;;;1.57;71.47
72110;BME280;59983;52.010;5.420;2022-12-18T12:33:01;102464.75;;;1.54;71.21
72110;BME280;59983;52.010;5.420;2022-12-18T12:35:55;102459.41;;;1.54;71.64
72110;BME280;59983;52.010;5.420;2022-12-18T12:38:31;102454.63;;;1.56;71.57
72110;BME280;59983;52.010;5.420;2022-12-18T12:41:04;102442.38;;;1.60;71.80
72110;BME280;59983;52.010;5.420;2022-12-18T12:43:47;102430.69;;;1.66;71.23
72110;BME280;59983;52.010;5.420;2022-12-18T12:46:38;102429.97;;;1.71;71.20
72110;BME280;59983;52.010;5.420;2022-12-18T12:49:14;102430.28;;;1.75;71.30
72110;BME280;59983;52.010;5.420;2022-12-18T12:51:45;102420.06;;;1.72;71.21
72110;BME280;59983;52.010;5.420;2022-12-18T12:54:19;102424.63;;;1.71;71.10
72110;BME280;59983;52.010;5.420;2022-12-18T12:57:21;102417.56;;;1.65;70.91
72110;BME280;59983;52.010;5.420;2022-12-18T13:05:24;102421.31;;;1.64;70.93
72110;BME280;59983;52.010;5.420;2022-12-18T13:08:08;102405.56;;;1.67;70.82
72110;BME280;59983;52.010;5.420;2022-12-18T13:10:36;102401.66;;;1.75;70.92
72110;BME280;59983;52.010;5.420;2022-12-18T13:13:06;102403.06;;;1.78;70.79
72110;BME280;59983;52.010;5.420;2022-12-18T13:15:41;102410.50;;;1.76;70.68
72110;BME280;59983;52.010;5.420;2022-12-18T13:18:17;102411.00;;;1.73;70.35
72110;BME280;59983;52.010;5.420;2022-12-18T13:25:53;102411.25;;;1.71;70.42
72110;BME280;59983;52.010;5.420;2022-12-18T13:31:01;102406.53;;;1.78;70.69
72110;BME280;59983;52.010;5.420;2022-12-18T13:33:41;102398.72;;;1.77;70.93
72110;BME280;59983;52.010;5.420;2022-12-18T13:36:32;102390.22;;;1.80;70.32
72110;BME280;59983;52.010;5.420;2022-12-18T13:44:37;102390.16;;;1.75;70.60
72110;BME280;59983;52.010;5.420;2022-12-18T13:47:27;102394.53;;;1.81;70.47
72110;BME280;59983;52.010;5.420;2022-12-18T13:49:54;102379.53;;;1.80;70.61
72110;BME280;59983;52.010;5.420;2022-12-18T13:52:24;102373.19;;;1.86;70.00
72110;BME280;59983;52.010;5.420;2022-12-18T13:54:54;102375.38;;;1.89;70.46
72110;BME280;59983;52.010;5.420;2022-12-18T13:57:36;102376.19;;;1.89;69.75
72110;BME280;59983;52.010;5.420;2022-12-18T14:02:49;102358.25;;;1.90;69.72
72110;BME280;59983;52.010;5.420;2022-12-18T14:05:33;102356.31;;;1.85;69.59
72110;BME280;59983;52.010;5.420;2022-12-18T14:08:05;102353.41;;;1.87;69.84
72110;BME280;59983;52.010;5.420;2022-12-18T14:10:34;102353.88;;;1.84;69.47
72110;BME280;59983;52.010;5.420;2022-12-18T14:13:38;102345.63;;;1.85;69.84
72110;BME280;59983;52.010;5.420;2022-12-18T14:16:06;102333.38;;;1.89;69.50
72110;BME280;59983;52.010;5.420;2022-12-18T14:18:54;102338.66;;;1.84;69.67
72110;BME280;59983;52.010;5.420;2022-12-18T14:21:45;102332.38;;;1.74;69.63
72110;BME280;59983;52.010;5.420;2022-12-18T14:24:21;102336.41;;;1.76;69.98
72110;BME280;59983;52.010;5.420;2022-12-18T14:26:49;102340.13;;;1.75;69.88
72110;BME280;59983;52.010;5.420;2022-12-18T14:29:27;102324.72;;;1.82;69.47
72110;BME280;59983;52.010;5.420;2022-12-18T14:32:14;102321.53;;;1.85;70.26
72110;BME280;59983;52.010;5.420;2022-12-18T14:34:49;102317.19;;;2.01;71.40
72110;BME280;59983;52.010;5.420;2022-12-18T14:37:21;102323.66;;;2.05;71.75